createdAt,value
2019-01-21T00:00:42.669Z,43.27
2019-01-21T00:03:14.988Z,46.67
2019-01-21T00:05:47.074Z,44.90
2019-01-21T00:08:19.080Z,44.93
2019-01-21T00:10:51.076Z,42.50
2019-01-21T00:13:23.072Z,44.43
2019-01-21T00:15:55.035Z,43.10
2019-01-21T00:18:27.043Z,41.70
2019-01-21T00:20:59.046Z,45.53
2019-01-21T00:23:31.052Z,41.27
2019-01-21T00:26:03.062Z,45.70
2019-01-21T00:28:35.082Z,39.90
2019-01-21T00:31:07.045Z,42.50
2019-01-21T00:33:39.061Z,42.97
2019-01-21T00:36:11.061Z,42.50
2019-01-21T00:38:43.049Z,43.47
2019-01-21T00:41:15.004Z,44.80
2019-01-21T00:43:47.079Z,38.73
2019-01-21T00:46:19.191Z,40.43
2019-01-21T00:48:51.284Z,41.77
2019-01-21T00:51:23.260Z,44.60
2019-01-21T00:53:55.278Z,44.77
2019-01-21T00:56:27.268Z,43.63
2019-01-21T00:58:59.261Z,44.03
2019-01-21T01:01:31.251Z,40.90
2019-01-21T01:04:03.304Z,40.57
2019-01-21T01:06:35.314Z,44.83
2019-01-21T01:09:07.483Z,43.13
2019-01-21T01:11:39.492Z,39.33
2019-01-21T01:14:11.446Z,42.93
2019-01-21T01:16:43.431Z,43.30
2019-01-21T01:19:15.453Z,42.87
2019-01-21T01:21:47.454Z,42.20
2019-01-21T01:24:19.429Z,43.07
2019-01-21T01:26:51.404Z,41.97
2019-01-21T01:29:23.402Z,39.70
2019-01-21T01:31:55.431Z,41.53
2019-01-21T01:34:27.384Z,43.83
2019-01-21T01:36:59.404Z,41.63
2019-01-21T01:39:31.407Z,39.63
2019-01-21T01:42:03.392Z,39.60
2019-01-21T01:44:35.366Z,41.23
2019-01-21T01:47:07.364Z,39.10
2019-01-21T01:49:39.338Z,40.23
2019-01-21T01:52:11.328Z,36.67
2019-01-21T01:54:43.533Z,39.33
2019-01-21T01:57:15.530Z,44.17
2019-01-21T01:59:47.502Z,44.67
2019-01-21T02:02:19.483Z,43.30
2019-01-21T02:04:51.765Z,48.63
2019-01-21T02:07:23.831Z,38.57
2019-01-21T02:09:55.811Z,44.40
2019-01-21T02:12:27.837Z,43.97
2019-01-21T02:14:59.796Z,44.20
2019-01-21T02:17:31.800Z,39.27
2019-01-21T02:20:05.806Z,39.37
2019-01-21T02:22:44.139Z,41.40
2019-01-21T02:25:16.658Z,38.93
2019-01-21T02:28:22.137Z,43.20
2019-01-21T02:31:34.507Z,38.10
2019-01-21T02:34:35.598Z,43.70
2019-01-21T02:37:49.416Z,41.70
2019-01-21T02:41:06.309Z,41.00
2019-01-21T02:44:20.534Z,39.07
2019-01-21T02:47:01.567Z,38.10
2019-01-21T02:50:04.811Z,39.27
2019-01-21T02:53:30.985Z,41.87
2019-01-21T02:56:46.627Z,42.47
2019-01-21T03:00:11.687Z,41.30
2019-01-21T03:03:21.737Z,41.73
2019-01-21T03:06:34.269Z,44.50
2019-01-21T03:09:36.721Z,42.27
2019-01-21T03:12:38.210Z,42.90
2019-01-21T03:15:47.651Z,44.23
2019-01-21T03:19:03.111Z,37.20
2019-01-21T03:22:11.577Z,40.40
2019-01-21T03:25:31.103Z,40.23
2019-01-21T03:28:39.486Z,38.37
2019-01-21T03:31:54.125Z,35.20
2019-01-21T03:35:04.037Z,39.47
2019-01-21T03:38:32.938Z,42.07
2019-01-21T03:41:55.667Z,37.07
2019-01-21T03:44:47.500Z,40.37
2019-01-21T03:47:32.494Z,37.83
2019-01-21T03:50:36.880Z,38.43
2019-01-21T03:53:40.510Z,36.00
2019-01-21T03:56:39.636Z,39.43
2019-01-21T03:59:49.258Z,35.33
2019-01-21T04:03:03.998Z,34.83
2019-01-21T04:05:52.543Z,33.67
2019-01-21T04:08:54.449Z,32.90
2019-01-21T04:11:55.652Z,34.03
2019-01-21T04:14:46.599Z,33.73
2019-01-21T04:17:57.167Z,37.30
2019-01-21T04:21:16.309Z,34.90
2019-01-21T04:24:34.442Z,33.73
2019-01-21T04:27:54.108Z,31.70
2019-01-21T04:30:55.136Z,35.73
2019-01-21T04:33:56.019Z,32.43
2019-01-21T04:37:03.807Z,36.10
2019-01-21T04:40:01.269Z,33.20
2019-01-21T04:43:18.036Z,35.80
2019-01-21T04:46:31.265Z,38.47
2019-01-21T04:49:16.920Z,33.03
2019-01-21T04:52:24.934Z,35.93
2019-01-21T04:55:35.596Z,35.60
2019-01-21T04:58:45.052Z,36.80
2019-01-21T05:01:42.601Z,33.43
2019-01-21T05:04:46.319Z,35.07
2019-01-21T05:07:31.754Z,39.17
2019-01-21T05:10:30.101Z,34.83
2019-01-21T05:13:35.172Z,31.57
2019-01-21T05:16:46.366Z,36.13
2019-01-21T05:20:09.427Z,33.47
2019-01-21T05:23:24.527Z,35.57
2019-01-21T05:26:22.793Z,39.27
2019-01-21T05:29:46.326Z,32.97
2019-01-21T05:33:00.227Z,39.07
2019-01-21T05:35:54.188Z,34.53
2019-01-21T05:38:49.721Z,36.80
2019-01-21T05:42:15.701Z,36.97
2019-01-21T05:45:24.216Z,33.80
2019-01-21T05:48:48.901Z,31.90
2019-01-21T05:52:01.798Z,39.20
2019-01-21T05:55:11.755Z,37.17
2019-01-21T05:58:19.877Z,39.30
2019-01-21T06:01:35.622Z,36.33
2019-01-21T06:04:33.556Z,37.03
2019-01-21T06:07:46.415Z,37.37
2019-01-21T06:10:39.486Z,34.00
2019-01-21T06:14:04.726Z,38.63
2019-01-21T06:16:59.548Z,39.57
2019-01-21T06:20:07.669Z,40.20
2019-01-21T06:22:52.854Z,37.80
2019-01-21T06:26:08.664Z,39.23
2019-01-21T06:29:05.391Z,38.07
2019-01-21T06:32:03.655Z,38.03
2019-01-21T06:35:08.783Z,34.83
2019-01-21T06:38:24.120Z,39.27
2019-01-21T06:41:33.860Z,34.53
2019-01-21T06:44:38.449Z,37.00
2019-01-21T06:47:45.276Z,36.53
2019-01-21T06:50:57.647Z,38.57
2019-01-21T06:53:58.579Z,39.33
2019-01-21T06:57:15.559Z,36.93
2019-01-21T07:00:09.589Z,33.33
2019-01-21T07:03:19.180Z,36.03
2019-01-21T07:06:32.944Z,36.73
2019-01-21T07:09:18.124Z,39.67
2019-01-21T07:12:00.233Z,37.10
2019-01-21T07:15:00.325Z,37.13
2019-01-21T07:18:17.628Z,40.50
2019-01-21T07:21:33.339Z,40.43
2019-01-21T07:24:43.591Z,35.47
2019-01-21T07:27:54.206Z,37.77
2019-01-21T07:30:37.812Z,36.23
2019-01-21T07:33:29.300Z,43.63
2019-01-21T07:36:51.486Z,41.77
2019-01-21T07:39:47.723Z,36.90
2019-01-21T07:43:10.766Z,40.93
2019-01-21T07:46:04.843Z,39.33
2019-01-21T07:49:17.532Z,36.63
2019-01-21T07:52:22.601Z,42.67
2019-01-21T07:55:23.487Z,41.73
2019-01-21T07:58:39.151Z,41.20
2019-01-21T08:01:24.715Z,41.07
2019-01-21T08:04:29.447Z,47.73
2019-01-21T08:07:28.385Z,43.37
2019-01-21T08:10:37.714Z,45.97
2019-01-21T08:13:50.197Z,41.40
2019-01-21T08:17:28.459Z,40.33
2019-01-21T08:20:28.962Z,41.43
2019-01-21T08:23:48.106Z,43.97
2019-01-21T08:27:02.191Z,38.83
2019-01-21T08:29:48.993Z,42.87
2019-01-21T08:32:52.313Z,41.97
2019-01-21T08:35:46.113Z,42.47
2019-01-21T08:38:50.758Z,45.07
2019-01-21T08:42:04.630Z,44.57
2019-01-21T08:45:21.888Z,46.27
2019-01-21T08:48:44.399Z,50.40
2019-01-21T08:51:58.704Z,44.73
2019-01-21T08:55:24.980Z,44.80
2019-01-21T08:58:47.579Z,46.60
2019-01-21T09:02:00.356Z,46.97
2019-01-21T09:04:50.739Z,49.67
2019-01-21T09:08:06.352Z,51.97
2019-01-21T09:11:28.975Z,53.03
2019-01-21T09:14:27.767Z,51.80
2019-01-21T09:17:16.351Z,54.13
2019-01-21T09:20:25.650Z,55.93
2019-01-21T09:23:23.129Z,53.60
2019-01-21T09:26:28.072Z,59.17
2019-01-21T09:29:27.279Z,54.20
2019-01-21T09:32:11.568Z,56.83
2019-01-21T09:35:20.124Z,54.80
2019-01-21T09:38:19.208Z,55.77
2019-01-21T09:41:32.291Z,54.67
2019-01-21T09:44:15.784Z,58.47
2019-01-21T09:46:47.467Z,60.57
2019-01-21T09:49:18.443Z,58.37
2019-01-21T09:52:00.757Z,64.00
2019-01-21T09:54:35.121Z,55.77
2019-01-21T09:57:09.281Z,60.67
2019-01-21T09:59:41.760Z,58.43
2019-01-21T10:02:14.858Z,62.23
2019-01-21T10:04:55.844Z,62.93
2019-01-21T10:08:24.875Z,59.23
2019-01-21T10:11:16.071Z,56.00
2019-01-21T10:14:45.076Z,61.50
2019-01-21T10:17:26.446Z,58.77
2019-01-21T10:20:32.668Z,55.43
2019-01-21T10:23:50.929Z,56.73
2019-01-21T10:27:01.123Z,59.57
2019-01-21T10:30:14.828Z,64.37
2019-01-21T10:33:23.549Z,59.80
2019-01-21T10:36:51.776Z,67.47
2019-01-21T10:39:40.380Z,65.83
2019-01-21T10:42:39.100Z,63.33
2019-01-21T10:45:49.421Z,65.03
2019-01-21T10:48:50.412Z,70.60
2019-01-21T10:51:52.315Z,62.67
2019-01-21T10:54:55.542Z,62.13
2019-01-21T10:58:03.069Z,64.20
2019-01-21T11:01:26.734Z,68.30
2019-01-21T11:04:22.742Z,67.10
2019-01-21T11:07:16.535Z,63.80
2019-01-21T11:10:26.393Z,56.20
2019-01-21T11:14:01.169Z,67.97
2019-01-21T11:17:06.917Z,64.73
2019-01-21T11:20:04.226Z,63.27
2019-01-21T11:22:59.633Z,67.90
2019-01-21T11:26:12.908Z,61.43
2019-01-21T11:29:11.571Z,64.60
2019-01-21T11:32:30.721Z,69.20
2019-01-21T11:35:41.674Z,67.83
2019-01-21T11:38:38.437Z,64.33
2019-01-21T11:41:37.044Z,65.93
2019-01-21T11:44:47.943Z,63.73
2019-01-21T11:47:58.865Z,64.90
2019-01-21T11:51:09.756Z,61.77
2019-01-21T11:54:20.658Z,64.73
2019-01-21T11:57:31.538Z,60.57
2019-01-21T12:00:11.668Z,63.10
2019-01-21T12:03:23.612Z,60.67
2019-01-21T12:06:01.403Z,69.53
2019-01-21T12:09:12.270Z,65.77
2019-01-21T12:12:09.455Z,63.60
2019-01-21T12:15:20.383Z,70.17
2019-01-21T12:18:16.620Z,67.10
2019-01-21T12:21:27.542Z,66.00
2019-01-21T12:24:38.578Z,63.23
2019-01-21T12:27:32.133Z,66.20
2019-01-21T12:30:43.028Z,67.07
2019-01-21T12:33:53.946Z,64.83
2019-01-21T12:37:04.853Z,62.23
2019-01-21T12:40:15.734Z,63.03
2019-01-21T12:43:26.655Z,64.00
2019-01-21T12:46:37.617Z,62.67
2019-01-21T12:49:48.538Z,64.50
2019-01-21T12:52:38.052Z,59.30
2019-01-21T12:55:48.965Z,66.53
2019-01-21T12:58:59.859Z,63.93
2019-01-21T13:02:10.781Z,62.20
2019-01-21T13:05:21.693Z,64.17
2019-01-21T13:08:19.628Z,67.60
2019-01-21T13:11:30.526Z,61.63
2019-01-21T13:14:41.451Z,66.57
2019-01-21T13:17:52.352Z,63.63
2019-01-21T13:21:03.256Z,68.40
2019-01-21T13:24:14.194Z,65.87
2019-01-21T13:27:08.767Z,94.50
2019-01-21T13:30:03.036Z,68.30
2019-01-21T13:33:13.907Z,64.07
2019-01-21T13:36:30.840Z,66.50
2019-01-21T13:39:29.093Z,61.90
2019-01-21T13:42:09.181Z,65.00
2019-01-21T13:45:15.123Z,61.93
2019-01-21T13:48:23.146Z,65.77
2019-01-21T13:51:13.435Z,63.17
2019-01-21T13:54:22.224Z,63.20
2019-01-21T13:57:48.429Z,68.93
2019-01-21T14:00:40.911Z,69.20
2019-01-21T14:03:53.867Z,63.27
2019-01-21T14:07:28.947Z,66.83
2019-01-21T14:10:42.053Z,62.50
2019-01-21T14:13:32.609Z,58.33
2019-01-21T14:17:01.748Z,58.67
2019-01-21T14:20:16.882Z,63.77
2019-01-21T14:23:38.380Z,67.77
2019-01-21T14:27:00.934Z,62.77
2019-01-21T14:30:05.729Z,76.57
2019-01-21T14:33:25.352Z,70.20
2019-01-21T14:36:25.415Z,67.50
2019-01-21T14:39:46.183Z,75.90
2019-01-21T14:42:43.478Z,65.53
2019-01-21T14:45:29.787Z,54.33
2019-01-21T14:48:26.627Z,65.43
2019-01-21T14:51:52.577Z,64.23
2019-01-21T14:54:48.993Z,58.63
2019-01-21T14:57:54.479Z,62.03
2019-01-21T15:01:12.497Z,53.97
2019-01-21T15:04:25.026Z,51.80
2019-01-21T15:07:14.075Z,54.07
2019-01-21T15:10:28.924Z,51.20
2019-01-21T15:13:08.370Z,60.07
2019-01-21T15:16:21.704Z,56.37
2019-01-21T15:19:50.530Z,56.00
2019-01-21T15:22:39.989Z,48.50
2019-01-21T15:25:50.686Z,51.57
2019-01-21T15:29:28.718Z,51.97
2019-01-21T15:32:48.495Z,49.60
2019-01-21T15:36:04.679Z,50.13
2019-01-21T15:39:15.969Z,51.17
2019-01-21T15:42:09.546Z,56.23
2019-01-21T15:45:39.237Z,52.37
2019-01-21T15:48:30.587Z,50.20
2019-01-21T15:51:33.960Z,50.33
2019-01-21T15:54:14.706Z,56.53
2019-01-21T15:57:19.553Z,59.70
2019-01-21T16:00:35.539Z,62.00
2019-01-21T16:03:46.568Z,59.73
2019-01-21T16:07:00.554Z,63.03
2019-01-21T16:09:54.141Z,66.93
2019-01-21T16:12:57.873Z,60.27
2019-01-21T16:15:58.067Z,53.93
2019-01-21T16:18:41.324Z,55.33
2019-01-21T16:22:01.214Z,52.50
2019-01-21T16:25:08.229Z,53.47
2019-01-21T16:28:20.718Z,58.03
2019-01-21T16:30:56.837Z,48.23
2019-01-21T16:34:12.288Z,49.93
2019-01-21T16:37:18.826Z,48.27
2019-01-21T16:41:03.032Z,58.37
2019-01-21T16:43:35.077Z,58.00
2019-01-21T16:46:07.075Z,54.60
2019-01-21T16:48:39.098Z,54.40
2019-01-21T16:51:11.159Z,51.70
2019-01-21T16:53:43.224Z,64.57
2019-01-21T16:56:15.254Z,65.87
2019-01-21T16:58:47.319Z,62.10
2019-01-21T17:01:19.363Z,62.77
2019-01-21T17:03:51.477Z,59.83
2019-01-21T17:06:23.528Z,59.27
2019-01-21T17:08:55.574Z,59.37
2019-01-21T17:11:27.847Z,61.53
2019-01-21T17:13:59.910Z,59.00
2019-01-21T17:16:31.978Z,54.07
2019-01-21T17:19:04.141Z,57.27
2019-01-21T17:21:36.275Z,49.00
2019-01-21T17:24:08.329Z,54.23
2019-01-21T17:26:41.826Z,54.53
2019-01-21T17:29:13.859Z,61.40
2019-01-21T17:31:46.000Z,67.10
2019-01-21T17:34:18.095Z,72.53
2019-01-21T17:36:50.117Z,69.73
2019-01-21T17:39:22.119Z,63.10
2019-01-21T17:41:54.222Z,61.60
2019-01-21T17:44:26.231Z,62.60
2019-01-21T17:46:58.236Z,66.53
2019-01-21T17:49:30.292Z,59.60
2019-01-21T17:52:02.409Z,57.67
2019-01-21T17:54:35.293Z,58.27
2019-01-21T17:57:08.441Z,59.30
2019-01-21T17:59:40.420Z,55.07
2019-01-21T18:02:12.530Z,54.40
2019-01-21T18:04:44.595Z,54.07
2019-01-21T18:07:16.720Z,47.50
2019-01-21T18:09:48.817Z,57.70
2019-01-21T18:12:20.847Z,58.97
2019-01-21T18:14:52.981Z,59.07
2019-01-21T18:17:25.573Z,54.17
2019-01-21T18:19:57.726Z,59.50
2019-01-21T18:22:29.904Z,58.17
2019-01-21T18:25:02.060Z,56.97
2019-01-21T18:27:34.198Z,55.13
2019-01-21T18:30:09.892Z,55.60
2019-01-21T18:32:42.000Z,54.30
2019-01-21T18:35:14.172Z,60.03
2019-01-21T18:37:46.225Z,53.23
2019-01-21T18:40:19.528Z,68.63
2019-01-21T18:42:51.594Z,54.33
2019-01-21T18:45:26.035Z,51.30
2019-01-21T18:47:58.015Z,52.83
2019-01-21T18:50:30.313Z,49.90
2019-01-21T18:53:05.640Z,53.80
2019-01-21T18:55:37.773Z,52.60
2019-01-21T18:58:09.958Z,54.93
2019-01-21T19:00:42.056Z,51.10
2019-01-21T19:03:14.211Z,55.40
2019-01-21T19:05:46.407Z,50.83
2019-01-21T19:08:18.448Z,50.17
2019-01-21T19:10:50.574Z,51.40
2019-01-21T19:13:22.640Z,50.53
2019-01-21T19:15:54.750Z,50.83
2019-01-21T19:18:26.774Z,49.33
2019-01-21T19:20:58.969Z,47.13
2019-01-21T19:23:31.017Z,44.63
2019-01-21T19:26:03.249Z,49.30
2019-01-21T19:28:35.282Z,51.10
2019-01-21T19:31:07.366Z,58.67
2019-01-21T19:33:39.390Z,51.33
2019-01-21T19:36:11.624Z,54.80
2019-01-21T19:38:43.689Z,51.97
2019-01-21T19:41:15.762Z,52.97
2019-01-21T19:43:47.799Z,49.40
2019-01-21T19:46:19.949Z,48.60
2019-01-21T19:48:52.024Z,50.07
2019-01-21T19:51:24.174Z,51.17
2019-01-21T19:53:56.318Z,46.57
2019-01-21T19:56:28.392Z,41.57
2019-01-21T19:59:00.488Z,41.13
2019-01-21T20:01:32.714Z,47.27
2019-01-21T20:04:04.837Z,47.90
2019-01-21T20:06:36.983Z,45.73
2019-01-21T20:09:09.069Z,48.17
2019-01-21T20:11:41.247Z,47.17
2019-01-21T20:14:13.354Z,50.40
2019-01-21T20:16:45.476Z,50.47
2019-01-21T20:19:17.585Z,48.23
2019-01-21T20:21:49.739Z,50.37
2019-01-21T20:24:21.773Z,47.13
2019-01-21T20:26:53.966Z,49.90
2019-01-21T20:29:26.035Z,48.17
2019-01-21T20:31:58.245Z,45.83
2019-01-21T20:34:30.321Z,47.87
2019-01-21T20:37:02.460Z,48.60
2019-01-21T20:39:34.553Z,53.80
2019-01-21T20:42:08.301Z,48.77
2019-01-21T20:44:40.374Z,45.07
2019-01-21T20:47:12.535Z,50.10
2019-01-21T20:49:44.622Z,42.37
2019-01-21T20:52:16.678Z,42.87
2019-01-21T20:54:48.776Z,43.67
2019-01-21T20:57:20.911Z,45.33
2019-01-21T20:59:52.993Z,50.10
2019-01-21T21:02:25.052Z,48.57
2019-01-21T21:04:57.105Z,51.83
2019-01-21T21:07:29.080Z,52.70
2019-01-21T21:10:01.168Z,51.73
2019-01-21T21:12:33.202Z,47.47
2019-01-21T21:15:09.199Z,48.73
2019-01-21T21:17:41.206Z,43.20
2019-01-21T21:20:13.396Z,49.87
2019-01-21T21:22:45.477Z,50.47
2019-01-21T21:25:17.971Z,47.20
2019-01-21T21:27:49.964Z,52.13
2019-01-21T21:30:24.462Z,46.17
2019-01-21T21:32:56.860Z,49.03
2019-01-21T21:35:29.135Z,47.23
2019-01-21T21:38:01.172Z,48.93
2019-01-21T21:40:33.252Z,50.37
2019-01-21T21:43:05.211Z,46.70
2019-01-21T21:45:37.548Z,47.07
2019-01-21T21:48:09.516Z,43.10
2019-01-21T21:50:41.555Z,41.70
2019-01-21T21:53:13.517Z,47.43
2019-01-21T21:55:45.471Z,49.73
2019-01-21T21:58:17.425Z,57.00
2019-01-21T22:00:49.411Z,47.20
2019-01-21T22:03:21.336Z,55.23
2019-01-21T22:05:53.287Z,50.00
2019-01-21T22:08:25.221Z,51.90
2019-01-21T22:10:57.268Z,56.87
2019-01-21T22:13:29.199Z,49.00
2019-01-21T22:16:01.184Z,46.37
2019-01-21T22:18:33.851Z,48.90
2019-01-21T22:21:05.821Z,46.47
2019-01-21T22:23:37.767Z,50.03
2019-01-21T22:26:09.754Z,48.33
2019-01-21T22:28:41.766Z,49.50
2019-01-21T22:31:13.826Z,49.17
2019-01-21T22:33:45.844Z,46.63
2019-01-21T22:36:17.893Z,50.43
2019-01-21T22:38:49.944Z,45.03
2019-01-21T22:41:21.963Z,50.77
2019-01-21T22:43:54.000Z,51.60
2019-01-21T22:46:25.976Z,50.20
2019-01-21T22:48:58.020Z,51.73
2019-01-21T22:51:29.993Z,51.03
2019-01-21T22:54:02.033Z,48.83
2019-01-21T22:56:34.020Z,56.17
2019-01-21T22:59:06.053Z,44.20
2019-01-21T23:01:38.348Z,55.30
2019-01-21T23:04:10.405Z,54.07
2019-01-21T23:06:42.400Z,53.80
2019-01-21T23:09:14.451Z,53.57
2019-01-21T23:11:50.949Z,51.80
2019-01-21T23:14:22.944Z,50.10
2019-01-21T23:16:54.922Z,50.87
2019-01-21T23:19:26.919Z,51.67
2019-01-21T23:21:58.900Z,47.30
2019-01-21T23:24:30.970Z,52.83
2019-01-21T23:27:02.958Z,51.80
2019-01-21T23:29:34.970Z,56.87
2019-01-21T23:32:06.962Z,49.37
2019-01-21T23:34:38.998Z,50.37
2019-01-21T23:37:10.981Z,52.43
2019-01-21T23:39:42.993Z,45.90
2019-01-21T23:42:15.002Z,47.00
2019-01-21T23:44:47.320Z,50.30
2019-01-21T23:47:19.320Z,49.13
2019-01-21T23:49:51.345Z,47.77
2019-01-21T23:52:23.324Z,51.50
2019-01-21T23:54:55.345Z,44.70
2019-01-21T23:57:27.303Z,52.93
2019-01-21T23:59:59.324Z,52.13
